Terminal Aerodrome Forecast
Issued by NWS Raleigh/Durham, NC

Home | Current Version | Previous Version | Text Only | Print | Product List | Glossary On
Versions: 1 2 3 4 5 6 7 8 9 10 11 12 13 14 15 16 17 18 19 20 21 22 23 24 25 26 27 28 29 30 31 32 33 34 35 36 37 38 39 40 41 42 43 44
870
FTUS42 KRAH 240421 AAC
TAFFAY
TAF AMD
KFAY 240421Z 2404/2424 21006KT P6SM FEW023 SCT035 OVC050
     FM240900 20005KT P6SM BKN080
      TEMPO 2409/2413 2SM BR BKN003
     FM241600 22010G18KT P6SM SCT050=

USA.gov is the U.S. government's official web portal to all federal, state and local government web resources and services.